Academy, South Dakota
Current Conditions -  °F | °C
As of 7:15 PM on Saturday 22 Nov 2014 (Local Time) from K9V9 Reporting Station
Clear Clear  
Wind Chill:   Ceiling: Unl
Heat Index:   Visibility: 10mi
Dew Point: -1°   Wind: 6mph
Humidity: 67%   Direction: 290°WNW
Pressure: 29.43"   Gusts: NA
Location:  43.4255°N, 98.9806°W
Report Text: K9V9 230115Z AUTO 29005KT 10SM CLR 05/00 A2943 RMK AO2 T00511005
Loading
Personal Weather Stations






























Interactive Weather Map New forecast layout! Learn more

10-Day Weather Forecast

Advertisements
Track Severe Weather on mobile